Time;durP1;ratioP1;P1;durP2;ratioP2;P2;SDS_P1;SDS_P2;PMS_P1;PMS_P2;Temp;Humidity;BMP_temperature;BMP_pressure;BME280_temperature;BME280_humidity;BME280_pressure;Samples;Min_cycle;Max_cycle;Signal;HPM_P1;HPM_P2
2021/12/02 00:00:05;;;;;;;3.83;0.70;;;5.50;99.90;;;;;;5092383;23;20781;-78
2021/12/02 00:02:08;;;;;;;1.20;0.60;;;5.50;99.90;;;;;;5091498;23;20416;-77
2021/12/02 00:04:09;;;;;;;2.93;0.70;;;5.40;99.90;;;;;;5092049;23;20802;-78
2021/12/02 00:06:14;;;;;;;2.07;0.70;;;5.40;99.90;;;;;;5092983;23;20424;-77
2021/12/02 00:08:16;;;;;;;3.53;0.93;;;5.40;99.90;;;;;;5092747;23;20407;-77
2021/12/02 00:10:17;;;;;;;2.27;0.60;;;5.40;99.90;;;;;;5092582;23;20454;-77
2021/12/02 00:12:19;;;;;;;1.90;0.60;;;5.40;99.90;;;;;;5092525;23;20411;-77
2021/12/02 00:14:24;;;;;;;3.93;0.80;;;5.40;99.90;;;;;;5091895;23;20440;-78
2021/12/02 00:16:32;;;;;;;2.90;0.80;;;5.40;99.90;;;;;;5092560;23;20779;-77
2021/12/02 00:21:04;;;;;;;1.23;0.67;;;5.30;99.90;;;;;;5040844;23;20401;-76
2021/12/02 00:23:29;;;;;;;1.60;0.70;;;5.30;99.90;;;;;;5090529;23;20890;-77
2021/12/02 00:25:31;;;;;;;3.13;0.70;;;5.30;99.90;;;;;;5091651;23;20864;-76
2021/12/02 00:27:34;;;;;;;1.70;0.50;;;5.30;99.90;;;;;;5093148;23;20427;-76
2021/12/02 00:29:39;;;;;;;3.00;0.80;;;5.20;99.90;;;;;;5090818;23;20468;-77
2021/12/02 00:31:40;;;;;;;1.90;0.50;;;5.20;99.90;;;;;;5092421;23;20834;-77
2021/12/02 00:33:45;;;;;;;3.03;0.60;;;5.20;99.90;;;;;;5091777;23;20502;-78
2021/12/02 00:35:48;;;;;;;1.60;0.60;;;5.20;99.90;;;;;;5091201;23;20415;-76
2021/12/02 00:37:50;;;;;;;1.53;0.63;;;5.10;99.90;;;;;;5092925;23;20494;-78
2021/12/02 00:39:55;;;;;;;1.30;0.67;;;5.20;99.90;;;;;;5091838;23;20446;-77
2021/12/02 00:41:57;;;;;;;2.20;0.60;;;5.10;99.90;;;;;;5092235;23;20430;-76
2021/12/02 00:43:59;;;;;;;1.87;1.00;;;5.20;99.90;;;;;;5093013;23;20499;-76
2021/12/02 00:46:05;;;;;;;3.90;0.80;;;5.20;99.90;;;;;;5089317;23;20830;-76
2021/12/02 00:48:08;;;;;;;2.07;0.77;;;5.20;99.90;;;;;;5092736;23;20419;-77
2021/12/02 00:50:10;;;;;;;2.20;1.20;;;5.20;99.90;;;;;;5091558;23;20977;-76
2021/12/02 00:52:12;;;;;;;3.47;0.70;;;5.20;99.90;;;;;;5092499;23;20486;-76
2021/12/02 00:54:14;;;;;;;4.63;0.80;;;5.30;99.90;;;;;;5092976;23;20439;-75
2021/12/02 00:56:17;;;;;;;2.97;0.83;;;5.30;99.90;;;;;;5090689;23;20487;-76
2021/12/02 00:58:23;;;;;;;2.37;0.87;;;5.30;99.90;;;;;;5091433;23;20416;-76
2021/12/02 01:00:25;;;;;;;3.80;0.80;;;5.30;99.90;;;;;;5091093;23;20408;-76
2021/12/02 01:02:28;;;;;;;7.17;0.90;;;5.30;99.90;;;;;;5091691;23;20426;-77
2021/12/02 01:04:30;;;;;;;3.27;0.60;;;5.30;99.90;;;;;;5092258;23;20501;-76
2021/12/02 01:06:31;;;;;;;1.73;0.57;;;5.40;99.90;;;;;;5090811;23;20420;-78
2021/12/02 01:08:35;;;;;;;3.70;0.70;;;5.30;99.90;;;;;;5092396;23;20495;-76
2021/12/02 01:10:37;;;;;;;1.73;0.70;;;5.30;99.90;;;;;;5091720;23;20502;-76
2021/12/02 01:12:40;;;;;;;6.40;0.87;;;5.40;99.90;;;;;;5091328;23;20466;-75
2021/12/02 01:14:44;;;;;;;2.87;0.93;;;5.40;99.90;;;;;;5091816;23;20439;-76
2021/12/02 01:16:46;;;;;;;2.83;0.80;;;5.30;99.90;;;;;;5091083;23;20477;-76
2021/12/02 01:18:47;;;;;;;4.20;0.73;;;5.30;99.90;;;;;;5091728;23;20415;-76
2021/12/02 01:20:51;;;;;;;5.17;1.07;;;5.30;99.90;;;;;;5090495;23;20431;-76
2021/12/02 01:22:55;;;;;;;5.00;1.17;;;5.30;99.90;;;;;;5092808;23;20470;-77
2021/12/02 01:24:57;;;;;;;5.03;0.87;;;5.30;99.90;;;;;;5092241;23;20490;-75
2021/12/02 01:27:01;;;;;;;3.47;0.83;;;5.30;99.90;;;;;;5091727;23;20817;-76
2021/12/02 01:29:05;;;;;;;2.60;0.73;;;5.30;99.90;;;;;;5091427;23;20985;-76
2021/12/02 01:31:06;;;;;;;4.23;1.00;;;5.30;99.90;;;;;;5090837;23;20513;-76
2021/12/02 01:33:08;;;;;;;3.63;0.90;;;5.30;99.90;;;;;;5090214;23;20415;-76
2021/12/02 01:35:10;;;;;;;2.37;0.80;;;5.30;99.90;;;;;;5091992;23;20458;-76
2021/12/02 01:37:12;;;;;;;3.57;1.00;;;5.30;99.90;;;;;;5090451;23;20449;-78
2021/12/02 01:39:14;;;;;;;3.30;0.77;;;5.30;99.90;;;;;;5091789;23;20805;-78
2021/12/02 01:41:15;;;;;;;4.37;0.80;;;5.30;99.90;;;;;;5092041;23;20716;-76
2021/12/02 01:43:20;;;;;;;4.50;0.83;;;5.30;99.90;;;;;;5091132;23;20427;-77
2021/12/02 01:45:26;;;;;;;2.33;1.00;;;5.30;99.90;;;;;;5089331;23;20482;-76
2021/12/02 01:47:31;;;;;;;2.83;1.33;;;5.40;99.90;;;;;;5090974;23;20407;-75
2021/12/02 01:49:36;;;;;;;2.93;1.00;;;5.40;99.90;;;;;;5091421;23;20875;-76
2021/12/02 01:51:41;;;;;;;2.77;0.80;;;5.40;99.90;;;;;;5090572;23;20446;-76
2021/12/02 01:53:43;;;;;;;1.77;0.90;;;5.40;99.90;;;;;;5091548;23;20815;-76
2021/12/02 01:55:50;;;;;;;2.47;1.20;;;5.40;99.90;;;;;;5090954;23;20474;-77
2021/12/02 01:57:59;;;;;;;3.67;0.93;;;5.40;99.90;;;;;;5091384;23;20399;-76
2021/12/02 02:00:08;;;;;;;3.70;1.00;;;5.40;99.90;;;;;;5091400;23;20411;-77
2021/12/02 02:02:12;;;;;;;2.87;0.93;;;5.40;99.90;;;;;;5091595;23;20791;-76
2021/12/02 02:04:15;;;;;;;4.33;0.93;;;5.30;99.90;;;;;;5090458;23;20443;-76
2021/12/02 02:06:25;;;;;;;4.50;1.20;;;5.30;99.90;;;;;;5091595;23;20642;-76
2021/12/02 02:08:29;;;;;;;3.40;0.80;;;5.40;99.90;;;;;;5091641;23;20399;-77
2021/12/02 02:10:39;;;;;;;3.50;0.73;;;5.40;99.90;;;;;;5091045;23;21029;-76
2021/12/02 02:12:41;;;;;;;3.47;0.70;;;5.30;99.90;;;;;;5092036;23;20892;-76
2021/12/02 02:14:44;;;;;;;4.97;1.20;;;5.30;99.90;;;;;;5091342;23;20435;-76
2021/12/02 02:16:47;;;;;;;3.57;1.07;;;5.30;99.90;;;;;;5090675;23;20926;-75
2021/12/02 02:18:50;;;;;;;2.33;0.80;;;5.30;99.90;;;;;;5091766;23;20435;-76
2021/12/02 02:20:59;;;;;;;4.93;0.83;;;5.30;99.90;;;;;;5092037;23;20418;-76
2021/12/02 02:23:01;;;;;;;5.63;1.00;;;5.20;99.90;;;;;;5092035;23;20882;-76
2021/12/02 02:25:05;;;;;;;2.37;0.80;;;5.20;99.90;;;;;;5073663;23;20499;-86
2021/12/02 02:27:07;;;;;;;4.53;0.93;;;5.20;99.90;;;;;;5067730;23;20424;-86
2021/12/02 02:29:11;;;;;;;5.73;1.10;;;5.10;99.90;;;;;;5066888;23;20416;-86
2021/12/02 02:31:13;;;;;;;4.57;0.80;;;5.10;99.90;;;;;;5066446;23;20502;-86
2021/12/02 02:33:17;;;;;;;3.73;0.80;;;5.10;99.90;;;;;;5067524;23;20420;-86
2021/12/02 02:35:19;;;;;;;5.73;0.90;;;5.10;99.90;;;;;;5067202;23;20432;-87
2021/12/02 02:37:22;;;;;;;4.90;1.00;;;5.00;99.90;;;;;;5066108;23;20424;-86
2021/12/02 02:39:24;;;;;;;4.63;0.90;;;5.00;99.90;;;;;;5067406;23;20421;-86
2021/12/02 02:41:29;;;;;;;3.07;0.90;;;5.00;99.90;;;;;;5066298;23;20404;-86
2021/12/02 02:43:33;;;;;;;4.53;1.00;;;4.90;99.90;;;;;;5066605;23;20427;-86
2021/12/02 02:45:36;;;;;;;5.23;0.97;;;4.90;99.90;;;;;;5066072;23;20419;-86
2021/12/02 02:47:40;;;;;;;5.03;0.77;;;4.90;99.90;;;;;;5067360;23;20405;-86
2021/12/02 02:49:41;;;;;;;3.17;1.00;;;4.90;99.90;;;;;;5066987;23;20421;-86
2021/12/02 02:51:46;;;;;;;3.30;0.60;;;4.90;99.90;;;;;;5066586;23;20452;-86
2021/12/02 02:53:54;;;;;;;5.10;0.90;;;4.90;99.90;;;;;;5068590;23;20441;-86
2021/12/02 02:56:05;;;;;;;4.53;0.90;;;5.00;99.90;;;;;;5068946;23;20502;-86
2021/12/02 02:58:14;;;;;;;6.73;1.30;;;5.10;99.90;;;;;;5067260;23;20442;-86
2021/12/02 03:00:26;;;;;;;5.20;1.23;;;5.00;99.90;;;;;;5068240;23;20435;-86
2021/12/02 03:02:33;;;;;;;2.53;0.90;;;4.90;99.90;;;;;;5068939;23;20487;-86
2021/12/02 03:04:42;;;;;;;4.50;0.90;;;5.00;99.90;;;;;;5067906;23;20931;-86
2021/12/02 03:06:50;;;;;;;7.53;1.20;;;5.00;99.90;;;;;;5068130;23;20882;-86
2021/12/02 03:08:56;;;;;;;4.30;0.97;;;5.00;99.90;;;;;;5067824;23;20410;-85
2021/12/02 03:10:59;;;;;;;3.50;0.80;;;5.00;99.90;;;;;;5068461;23;20496;-86
2021/12/02 03:13:11;;;;;;;2.13;1.03;;;5.00;99.90;;;;;;5068161;23;20814;-87
2021/12/02 03:17:33;;;;;;;4.47;0.97;;;5.00;99.90;;;;;;5069645;23;20748;-86
2021/12/02 03:19:35;;;;;;;5.80;1.10;;;4.90;99.90;;;;;;5068075;23;20425;-86
2021/12/02 03:21:37;;;;;;;4.90;1.20;;;4.90;99.90;;;;;;5067568;23;20412;-86
2021/12/02 03:23:49;;;;;;;4.67;1.07;;;5.00;99.90;;;;;;5068899;23;20912;-86
2021/12/02 03:25:53;;;;;;;8.23;0.90;;;4.90;99.90;;;;;;5069257;23;20436;-85
2021/12/02 03:27:54;;;;;;;4.63;1.13;;;5.20;99.90;;;;;;5069344;23;20404;-86
2021/12/02 03:29:56;;;;;;;5.27;0.87;;;4.90;99.90;;;;;;5068390;23;20428;-86
2021/12/02 03:31:58;;;;;;;5.67;0.90;;;4.90;99.90;;;;;;5068255;23;20966;-86
2021/12/02 03:34:00;;;;;;;6.37;0.87;;;4.90;99.90;;;;;;5067634;23;20421;-85
2021/12/02 03:36:02;;;;;;;3.90;1.10;;;4.90;99.90;;;;;;5068589;23;20447;-86
2021/12/02 03:38:04;;;;;;;4.17;1.20;;;4.90;99.90;;;;;;5068966;23;20429;-86
2021/12/02 03:40:07;;;;;;;3.43;0.80;;;4.90;99.90;;;;;;5067116;23;20420;-86
2021/12/02 03:42:11;;;;;;;3.63;1.10;;;4.90;99.90;;;;;;5067865;23;20926;-86
2021/12/02 03:44:13;;;;;;;5.90;1.00;;;4.80;99.90;;;;;;5068179;23;20495;-86
2021/12/02 03:46:16;;;;;;;3.00;0.90;;;4.70;99.90;;;;;;5066872;23;20408;-86
2021/12/02 03:48:18;;;;;;;3.53;0.90;;;4.50;99.90;;;;;;5069035;23;20384;-86
2021/12/02 03:50:20;;;;;;;4.50;1.10;;;4.40;99.90;;;;;;5067912;23;20501;-86
2021/12/02 03:52:22;;;;;;;3.37;0.77;;;4.20;99.90;;;;;;5068210;23;20452;-85
2021/12/02 03:54:23;;;;;;;3.27;1.00;;;4.20;99.90;;;;;;5068612;23;20927;-85
2021/12/02 03:56:25;;;;;;;6.00;1.00;;;4.00;99.90;;;;;;5075136;23;20829;-84
2021/12/02 03:58:28;;;;;;;6.60;1.00;;;4.00;99.90;;;;;;5069109;23;20416;-85
2021/12/02 04:00:30;;;;;;;3.17;0.83;;;3.90;99.90;;;;;;5068807;23;20416;-86
2021/12/02 04:02:32;;;;;;;4.20;1.17;;;3.80;99.90;;;;;;5069554;23;20763;-85
2021/12/02 04:04:33;;;;;;;4.03;0.80;;;3.80;99.90;;;;;;5067827;23;20444;-85
2021/12/02 04:06:35;;;;;;;7.07;0.93;;;3.70;99.90;;;;;;5068826;23;20420;-84
2021/12/02 04:08:44;;;;;;;3.07;0.80;;;3.60;99.90;;;;;;5068989;23;20409;-85
2021/12/02 04:10:47;;;;;;;3.43;0.80;;;3.60;99.90;;;;;;5068285;23;20443;-85
2021/12/02 04:12:54;;;;;;;3.20;0.80;;;3.50;99.90;;;;;;5068272;23;20432;-86
2021/12/02 04:15:01;;;;;;;6.07;0.70;;;3.80;99.90;;;;;;5068491;23;20444;-85
2021/12/02 04:17:05;;;;;;;5.33;1.07;;;3.50;99.90;;;;;;5069056;23;20443;-86
2021/12/02 04:19:10;;;;;;;3.20;0.70;;;3.50;99.90;;;;;;5068258;23;20451;-85
2021/12/02 04:21:12;;;;;;;4.97;0.93;;;3.50;99.90;;;;;;5066759;23;20450;-85
2021/12/02 04:23:14;;;;;;;4.83;1.03;;;3.40;99.90;;;;;;5068694;23;20455;-85
2021/12/02 04:25:17;;;;;;;3.50;1.00;;;3.40;99.90;;;;;;5068725;23;20451;-85
2021/12/02 04:27:19;;;;;;;4.07;0.93;;;3.70;99.90;;;;;;5069080;23;20420;-84
2021/12/02 04:29:22;;;;;;;4.33;1.00;;;3.40;99.90;;;;;;5068565;23;20396;-85
2021/12/02 04:31:26;;;;;;;5.43;0.87;;;3.40;99.90;;;;;;5068539;23;20546;-84
2021/12/02 04:33:29;;;;;;;3.93;1.20;;;3.40;99.90;;;;;;5068272;23;20428;-85
2021/12/02 04:35:31;;;;;;;3.07;0.50;;;3.30;99.90;;;;;;5067477;23;20599;-85
2021/12/02 04:37:33;;;;;;;2.03;0.80;;;3.30;99.90;;;;;;5068775;23;20420;-85
2021/12/02 04:39:35;;;;;;;2.30;0.70;;;3.30;99.90;;;;;;5068275;23;20916;-84
2021/12/02 04:41:37;;;;;;;4.73;0.97;;;3.30;99.90;;;;;;5067845;23;20528;-85
2021/12/02 04:43:38;;;;;;;7.17;1.10;;;3.30;99.90;;;;;;5068382;23;20420;-85
2021/12/02 04:45:40;;;;;;;4.07;1.03;;;3.30;99.90;;;;;;5068371;23;20479;-85
2021/12/02 04:47:46;;;;;;;2.80;0.70;;;3.30;99.90;;;;;;5069046;23;20872;-85
2021/12/02 04:49:48;;;;;;;5.03;0.80;;;3.30;99.90;;;;;;5067592;23;20742;-85
2021/12/02 04:51:50;;;;;;;4.50;1.00;;;3.30;99.90;;;;;;5067694;23;20448;-85
2021/12/02 04:53:52;;;;;;;2.87;0.73;;;3.30;99.90;;;;;;5068101;23;20467;-86
2021/12/02 04:55:54;;;;;;;3.43;0.80;;;3.30;99.90;;;;;;5068603;23;20805;-85
2021/12/02 04:57:55;;;;;;;1.93;0.70;;;3.30;99.90;;;;;;5068408;23;20401;-85
2021/12/02 04:59:57;;;;;;;6.27;1.57;;;3.30;99.90;;;;;;5067994;23;20412;-85
2021/12/02 05:01:59;;;;;;;1.43;0.50;;;3.30;99.90;;;;;;5068347;23;20912;-85
2021/12/02 05:04:02;;;;;;;2.30;0.80;;;3.30;99.90;;;;;;5068303;23;20460;-86
2021/12/02 05:06:04;;;;;;;7.37;1.17;;;3.30;99.90;;;;;;5066928;23;20430;-86
2021/12/02 05:08:06;;;;;;;2.13;0.53;;;3.30;99.90;;;;;;5068248;23;20424;-86
2021/12/02 05:10:09;;;;;;;4.33;0.87;;;3.30;99.90;;;;;;5066392;23;20401;-86
2021/12/02 05:12:11;;;;;;;3.87;0.80;;;3.30;99.90;;;;;;5067307;23;20979;-87
2021/12/02 05:14:13;;;;;;;5.27;0.90;;;3.20;99.90;;;;;;5067687;23;20518;-85
2021/12/02 05:16:14;;;;;;;4.73;0.80;;;3.20;99.90;;;;;;5067072;23;20416;-86
2021/12/02 05:18:16;;;;;;;3.23;0.90;;;3.20;99.90;;;;;;5068230;23;20401;-86
2021/12/02 05:20:20;;;;;;;3.63;0.87;;;3.20;99.90;;;;;;5067682;23;20420;-86
2021/12/02 05:22:22;;;;;;;1.80;0.70;;;3.20;99.90;;;;;;5065623;23;20412;-86
2021/12/02 05:24:23;;;;;;;5.47;0.90;;;3.20;99.90;;;;;;5067351;23;20943;-86
2021/12/02 05:26:27;;;;;;;2.13;0.80;;;3.20;99.90;;;;;;5068207;23;20479;-86
2021/12/02 05:28:28;;;;;;;2.67;0.77;;;3.30;99.90;;;;;;5067686;23;20430;-86
2021/12/02 05:30:30;;;;;;;2.60;0.97;;;3.10;99.90;;;;;;5067452;23;20475;-86
2021/12/02 05:32:32;;;;;;;2.47;0.70;;;3.10;99.90;;;;;;5069009;23;20986;-86
2021/12/02 05:34:34;;;;;;;5.23;0.93;;;3.10;99.90;;;;;;5068613;23;20436;-86
2021/12/02 05:36:37;;;;;;;1.73;0.73;;;3.10;99.90;;;;;;5067453;23;20460;-86
2021/12/02 05:38:40;;;;;;;2.23;0.70;;;3.30;99.90;;;;;;5067662;23;20428;-86
2021/12/02 05:40:43;;;;;;;2.90;1.00;;;3.10;99.90;;;;;;5067850;23;20451;-86
2021/12/02 05:42:45;;;;;;;4.33;1.30;;;3.00;99.90;;;;;;5068356;23;20404;-86
2021/12/02 05:44:47;;;;;;;4.70;1.10;;;3.00;99.90;;;;;;5068014;23;20447;-86
2021/12/02 05:46:48;;;;;;;3.73;0.70;;;3.00;99.90;;;;;;5067409;23;20428;-86
2021/12/02 05:48:50;;;;;;;4.07;0.90;;;3.10;99.90;;;;;;5066898;23;20735;-86
2021/12/02 05:50:52;;;;;;;2.80;0.93;;;3.00;99.90;;;;;;5067140;23;20420;-86
2021/12/02 05:52:55;;;;;;;7.90;1.60;;;3.00;99.90;;;;;;5065059;23;20452;-86
2021/12/02 05:54:57;;;;;;;2.97;1.20;;;3.00;99.90;;;;;;5067140;23;20751;-86
2021/12/02 05:57:00;;;;;;;5.20;1.23;;;3.00;99.90;;;;;;5065575;23;20498;-86
2021/12/02 05:59:01;;;;;;;8.93;1.47;;;3.00;99.90;;;;;;5067357;23;20424;-86
2021/12/02 06:01:04;;;;;;;4.43;0.83;;;3.00;99.90;;;;;;5066679;23;20400;-86
2021/12/02 06:03:05;;;;;;;5.27;0.80;;;3.00;99.90;;;;;;5067921;23;20435;-87
2021/12/02 06:05:08;;;;;;;1.53;0.83;;;3.00;99.90;;;;;;5067349;23;20476;-86
2021/12/02 06:07:10;;;;;;;2.80;0.73;;;2.90;99.90;;;;;;5067269;23;20424;-86
2021/12/02 06:09:15;;;;;;;4.30;1.10;;;3.50;99.90;;;;;;5068171;23;20977;-87
2021/12/02 06:11:19;;;;;;;4.37;1.10;;;3.00;99.90;;;;;;5067675;23;20475;-86
2021/12/02 06:13:20;;;;;;;6.10;0.90;;;3.00;99.90;;;;;;5067503;23;20452;-85
2021/12/02 06:15:22;;;;;;;7.20;1.00;;;3.00;99.90;;;;;;5067818;23;20423;-86
2021/12/02 06:17:24;;;;;;;4.30;0.67;;;3.00;99.90;;;;;;5067461;23;20478;-85
2021/12/02 06:19:26;;;;;;;6.70;1.10;;;3.00;99.90;;;;;;5068856;23;20404;-86
2021/12/02 06:21:28;;;;;;;6.27;1.00;;;3.40;99.90;;;;;;5067636;23;20420;-86
2021/12/02 06:23:30;;;;;;;3.43;1.13;;;3.00;99.90;;;;;;5067605;23;20424;-85
2021/12/02 06:25:45;;;;;;;3.83;0.83;;;3.00;99.90;;;;;;5042836;23;20424;-85
2021/12/02 06:27:48;;;;;;;5.80;1.67;;;3.30;99.90;;;;;;5042382;23;20431;-85
2021/12/02 06:29:50;;;;;;;2.57;0.80;;;3.00;99.90;;;;;;5044061;23;20429;-86
2021/12/02 06:31:51;;;;;;;5.43;1.10;;;3.00;99.90;;;;;;5044771;23;20446;-88
2021/12/02 06:33:53;;;;;;;2.37;0.90;;;3.00;99.90;;;;;;5046020;23;20508;-85
2021/12/02 06:35:55;;;;;;;4.47;1.10;;;2.90;99.90;;;;;;5044978;23;20460;-85
2021/12/02 06:37:57;;;;;;;3.77;1.13;;;2.90;99.90;;;;;;5045228;23;20892;-85
2021/12/02 06:39:59;;;;;;;4.00;1.10;;;2.90;99.90;;;;;;5042615;23;20412;-85
2021/12/02 06:42:02;;;;;;;3.17;0.90;;;2.90;99.90;;;;;;5045620;23;20890;-85
2021/12/02 06:44:04;;;;;;;4.63;1.10;;;2.90;99.90;;;;;;5042309;23;20971;-85
2021/12/02 06:46:06;;;;;;;5.70;1.10;;;2.90;99.90;;;;;;5038786;23;20433;-84
2021/12/02 06:48:07;;;;;;;2.77;1.17;;;3.00;99.90;;;;;;5039855;23;20836;-83
2021/12/02 06:50:13;;;;;;;4.40;0.90;;;2.90;99.90;;;;;;5039149;23;20416;-84
2021/12/02 06:52:15;;;;;;;5.53;1.00;;;2.90;99.90;;;;;;5038247;23;20452;-85
2021/12/02 06:54:17;;;;;;;3.10;1.33;;;2.90;99.90;;;;;;5041775;23;20999;-85
2021/12/02 06:56:18;;;;;;;1.10;0.73;;;2.90;99.90;;;;;;5039263;23;20421;-85
2021/12/02 06:58:21;;;;;;;9.30;1.33;;;2.90;99.90;;;;;;5039526;23;20831;-85
2021/12/02 07:00:24;;;;;;;5.00;1.20;;;2.90;99.90;;;;;;5039710;23;20849;-87
2021/12/02 07:02:25;;;;;;;8.00;1.10;;;2.90;99.90;;;;;;5037899;23;20418;-86
2021/12/02 07:04:27;;;;;;;3.20;0.83;;;2.90;99.90;;;;;;5039930;23;20485;-85
2021/12/02 07:06:29;;;;;;;6.37;1.00;;;2.90;99.90;;;;;;5039042;23;20437;-85
2021/12/02 07:08:31;;;;;;;6.87;1.43;;;2.90;99.90;;;;;;5039978;23;20433;-85
2021/12/02 07:10:33;;;;;;;8.23;1.17;;;2.80;99.90;;;;;;5038440;23;20445;-85
2021/12/02 07:12:36;;;;;;;2.50;1.03;;;2.80;99.90;;;;;;5039407;23;20545;-85
2021/12/02 07:14:43;;;;;;;5.07;1.07;;;2.80;99.90;;;;;;5039676;23;20526;-85
2021/12/02 07:16:44;;;;;;;5.87;1.20;;;2.80;99.90;;;;;;5039332;23;20774;-85
2021/12/02 07:18:53;;;;;;;5.13;1.10;;;2.80;99.90;;;;;;5039763;23;20405;-85
2021/12/02 07:20:55;;;;;;;6.00;1.37;;;2.80;99.90;;;;;;5037604;23;20439;-85
2021/12/02 07:22:57;;;;;;;3.53;1.00;;;2.80;99.90;;;;;;5038904;23;20416;-85
2021/12/02 07:24:59;;;;;;;5.37;1.07;;;2.80;99.90;;;;;;5056792;23;20978;-84
2021/12/02 07:27:05;;;;;;;4.87;0.90;;;2.90;99.90;;;;;;5063708;23;20407;-85
2021/12/02 07:29:07;;;;;;;5.63;1.00;;;2.90;99.90;;;;;;5062870;23;20432;-85
2021/12/02 07:31:11;;;;;;;4.37;1.00;;;2.80;99.90;;;;;;5063063;23;20428;-85
2021/12/02 07:33:14;;;;;;;4.93;1.00;;;2.90;99.90;;;;;;5063110;23;20455;-85
2021/12/02 07:35:17;;;;;;;4.27;1.13;;;2.90;99.90;;;;;;5063052;23;20443;-85
2021/12/02 07:37:19;;;;;;;5.53;1.07;;;2.90;99.90;;;;;;5063410;23;20913;-85
2021/12/02 07:39:21;;;;;;;2.30;0.67;;;2.90;99.90;;;;;;5062521;23;20706;-85
2021/12/02 07:41:23;;;;;;;4.00;1.10;;;3.00;99.90;;;;;;5055472;23;20429;-84
2021/12/02 07:43:25;;;;;;;1.97;0.73;;;3.00;99.90;;;;;;5063216;23;20475;-85
2021/12/02 07:45:31;;;;;;;6.50;0.93;;;3.10;99.90;;;;;;5060208;23;20444;-85
2021/12/02 07:47:35;;;;;;;6.33;1.10;;;3.00;99.90;;;;;;5062273;23;20436;-84
2021/12/02 07:49:38;;;;;;;5.80;1.00;;;3.00;99.90;;;;;;5062259;23;20460;-85
2021/12/02 07:51:45;;;;;;;3.13;0.90;;;3.00;99.90;;;;;;5061782;23;21118;-85
2021/12/02 07:53:49;;;;;;;7.83;1.03;;;3.10;99.90;;;;;;5062629;23;20452;-85
2021/12/02 07:55:52;;;;;;;3.90;1.00;;;3.10;99.90;;;;;;5062574;23;20436;-85
2021/12/02 07:57:54;;;;;;;5.50;1.47;;;3.10;99.90;;;;;;5062703;23;20464;-85
2021/12/02 07:59:56;;;;;;;4.83;1.40;;;3.10;99.90;;;;;;5062710;23;20426;-85
2021/12/02 08:02:01;;;;;;;5.33;1.30;;;3.10;99.90;;;;;;5062042;23;20460;-85
2021/12/02 08:04:04;;;;;;;6.73;1.50;;;3.10;99.90;;;;;;5063347;23;20455;-84
2021/12/02 08:06:06;;;;;;;3.50;1.00;;;3.10;99.90;;;;;;5062631;23;20416;-85
2021/12/02 08:08:08;;;;;;;3.70;1.10;;;3.20;99.90;;;;;;5062794;23;20428;-83
2021/12/02 08:10:12;;;;;;;4.13;1.20;;;3.20;99.90;;;;;;5061948;23;20826;-85
2021/12/02 08:12:13;;;;;;;2.70;1.10;;;3.20;99.90;;;;;;5062886;23;20440;-84
2021/12/02 08:14:17;;;;;;;4.03;0.90;;;3.20;99.90;;;;;;5062598;23;20444;-85
2021/12/02 08:16:19;;;;;;;5.00;1.10;;;3.20;99.90;;;;;;5062092;23;20436;-85
2021/12/02 08:18:21;;;;;;;4.03;1.03;;;3.20;99.90;;;;;;5062189;23;20416;-85
2021/12/02 08:20:26;;;;;;;6.97;1.20;;;3.30;99.90;;;;;;5062281;23;20474;-85
2021/12/02 08:22:30;;;;;;;3.87;0.87;;;3.30;99.90;;;;;;5063500;23;20954;-85
2021/12/02 08:24:32;;;;;;;1.83;0.90;;;3.30;99.90;;;;;;5070639;23;20463;-77
2021/12/02 08:26:34;;;;;;;3.70;1.10;;;3.30;99.90;;;;;;5086656;23;20419;-76
2021/12/02 08:28:36;;;;;;;2.67;0.93;;;3.30;99.90;;;;;;5087178;23;20417;-76
2021/12/02 08:30:38;;;;;;;5.30;1.13;;;3.30;99.90;;;;;;5086850;23;20890;-76
2021/12/02 08:32:42;;;;;;;9.10;1.17;;;3.30;99.90;;;;;;5087628;23;20426;-76
2021/12/02 08:34:43;;;;;;;7.70;1.27;;;3.30;99.90;;;;;;5087711;23;20482;-75
2021/12/02 08:36:50;;;;;;;6.20;1.10;;;3.40;99.90;;;;;;5088996;23;20738;-77
2021/12/02 08:38:52;;;;;;;5.10;1.17;;;3.40;99.90;;;;;;5088640;23;20408;-75
2021/12/02 08:40:53;;;;;;;7.53;1.10;;;3.40;99.90;;;;;;5086609;23;20440;-75
2021/12/02 08:42:55;;;;;;;2.50;1.03;;;3.40;99.90;;;;;;5088617;23;20461;-77
2021/12/02 08:44:57;;;;;;;5.50;1.20;;;3.40;99.90;;;;;;5087952;23;20443;-76
2021/12/02 08:46:59;;;;;;;4.70;1.00;;;3.40;99.90;;;;;;5086334;23;20478;-77
2021/12/02 08:49:01;;;;;;;7.43;1.20;;;3.40;99.90;;;;;;5086936;23;20403;-76
2021/12/02 08:51:03;;;;;;;4.37;1.03;;;3.40;99.90;;;;;;5085652;23;20730;-77
2021/12/02 08:53:07;;;;;;;6.90;1.90;;;3.40;99.90;;;;;;5085448;23;20455;-76
2021/12/02 08:55:10;;;;;;;4.43;0.90;;;3.40;99.90;;;;;;5086467;23;20515;-76
2021/12/02 08:57:12;;;;;;;6.70;1.63;;;3.50;99.90;;;;;;5086735;23;20918;-77
2021/12/02 08:59:14;;;;;;;6.97;1.30;;;3.50;99.90;;;;;;5085129;23;20423;-76
2021/12/02 09:01:16;;;;;;;6.20;1.27;;;3.50;99.90;;;;;;5084981;23;20443;-77
2021/12/02 09:03:17;;;;;;;4.43;1.27;;;3.50;99.90;;;;;;5085882;23;20474;-76
2021/12/02 09:05:19;;;;;;;5.20;1.17;;;3.50;99.90;;;;;;5085815;23;20447;-76
2021/12/02 09:07:21;;;;;;;10.73;1.10;;;3.60;99.90;;;;;;5088826;23;20795;-77
2021/12/02 09:09:26;;;;;;;4.57;0.83;;;3.60;99.90;;;;;;5088446;23;20466;-76
2021/12/02 09:11:29;;;;;;;4.23;0.77;;;3.60;99.90;;;;;;5087261;23;20419;-79
2021/12/02 09:13:31;;;;;;;5.93;1.20;;;3.60;99.90;;;;;;5087567;23;20447;-76
2021/12/02 09:15:32;;;;;;;9.37;1.37;;;3.70;99.90;;;;;;5087372;23;20474;-77
2021/12/02 09:17:34;;;;;;;2.17;0.87;;;3.70;99.90;;;;;;5086388;23;20419;-77
2021/12/02 09:19:36;;;;;;;3.43;1.00;;;3.70;99.90;;;;;;5086411;23;20481;-77
2021/12/02 09:21:38;;;;;;;5.23;1.10;;;3.80;99.90;;;;;;5085807;23;20423;-77
2021/12/02 09:23:39;;;;;;;3.07;0.90;;;3.90;99.90;;;;;;5086387;23;20426;-76
2021/12/02 09:25:43;;;;;;;3.97;1.00;;;3.90;99.90;;;;;;5086551;23;20454;-77
2021/12/02 09:27:46;;;;;;;3.50;0.97;;;4.00;99.90;;;;;;5087191;23;20897;-79
2021/12/02 09:29:47;;;;;;;5.20;1.27;;;4.00;99.90;;;;;;5086883;23;20427;-77
2021/12/02 09:31:50;;;;;;;2.43;0.70;;;4.00;99.90;;;;;;5085880;23;20736;-75
2021/12/02 09:33:53;;;;;;;9.83;1.37;;;4.10;99.90;;;;;;5086615;23;20451;-76
2021/12/02 09:35:54;;;;;;;4.70;1.30;;;4.10;99.90;;;;;;5086323;23;20424;-78
2021/12/02 09:37:56;;;;;;;5.83;1.27;;;4.20;99.90;;;;;;5086546;23;20914;-78
2021/12/02 09:40:01;;;;;;;4.33;1.20;;;4.20;99.90;;;;;;5086455;23;20423;-79
2021/12/02 09:42:10;;;;;;;5.37;1.20;;;4.20;99.90;;;;;;5085466;23;20419;-79
2021/12/02 09:44:11;;;;;;;5.20;0.93;;;4.20;99.90;;;;;;5086371;23;20760;-78
2021/12/02 09:46:13;;;;;;;3.07;0.93;;;4.20;99.90;;;;;;5083735;23;20911;-77
2021/12/02 09:48:15;;;;;;;2.13;1.00;;;4.20;99.90;;;;;;5085511;23;20416;-76
2021/12/02 09:50:22;;;;;;;2.33;0.70;;;4.30;99.90;;;;;;5085191;23;20881;-78
2021/12/02 09:52:30;;;;;;;5.37;1.10;;;4.30;99.90;;;;;;5086331;23;20784;-78
2021/12/02 09:54:37;;;;;;;8.00;1.10;;;4.30;99.90;;;;;;5087278;23;20466;-79
2021/12/02 09:56:41;;;;;;;3.60;0.93;;;4.20;99.90;;;;;;5087728;23;20414;-77
2021/12/02 09:58:45;;;;;;;3.97;1.03;;;4.30;99.90;;;;;;5086939;23;20921;-79
2021/12/02 10:00:50;;;;;;;5.13;1.10;;;4.30;99.90;;;;;;5087238;23;20915;-76
2021/12/02 10:02:57;;;;;;;5.53;1.10;;;4.30;99.90;;;;;;5086600;23;20490;-78
2021/12/02 10:05:11;;;;;;;7.27;1.13;;;4.30;99.90;;;;;;5085799;23;20455;-76
2021/12/02 10:07:19;;;;;;;6.40;1.13;;;4.30;99.90;;;;;;5087888;23;20403;-78
2021/12/02 10:09:23;;;;;;;3.27;0.80;;;4.40;99.90;;;;;;5090266;23;20764;-78
2021/12/02 10:11:30;;;;;;;3.27;0.97;;;4.30;99.90;;;;;;5089223;23;20938;-78
2021/12/02 10:13:36;;;;;;;6.43;1.67;;;4.40;99.90;;;;;;5088567;23;20455;-78
2021/12/02 10:15:41;;;;;;;5.40;1.53;;;4.40;99.90;;;;;;5089231;23;20983;-79
2021/12/02 10:17:46;;;;;;;9.10;1.40;;;4.40;99.90;;;;;;5088542;23;20502;-77
2021/12/02 10:20:14;;;;;;;8.83;2.27;;;4.40;99.90;;;;;;5087481;23;20957;-77
2021/12/02 10:22:21;;;;;;;10.33;2.60;;;4.40;99.90;;;;;;5087077;23;20435;-76
2021/12/02 10:24:26;;;;;;;7.03;2.27;;;4.40;99.90;;;;;;5087306;23;20949;-76
2021/12/02 10:26:27;;;;;;;6.37;1.70;;;4.50;99.90;;;;;;5087812;23;20399;-77
2021/12/02 10:28:31;;;;;;;5.50;1.47;;;4.50;99.90;;;;;;5087728;23;20745;-76
2021/12/02 10:30:33;;;;;;;3.83;1.03;;;4.60;99.90;;;;;;5087280;23;20419;-77
2021/12/02 10:32:37;;;;;;;4.77;1.00;;;4.60;99.90;;;;;;5087635;23;20940;-77
2021/12/02 10:34:51;;;;;;;3.17;1.10;;;4.60;99.90;;;;;;5088034;23;20795;-76
2021/12/02 10:36:57;;;;;;;4.03;1.10;;;4.60;99.90;;;;;;5087338;23;20446;-76
2021/12/02 10:39:08;;;;;;;3.17;1.00;;;4.70;99.90;;;;;;5087895;23;20434;-76
2021/12/02 10:41:12;;;;;;;10.23;1.47;;;4.70;99.90;;;;;;5086402;23;20403;-79
2021/12/02 10:43:14;;;;;;;3.47;0.90;;;4.70;99.90;;;;;;5087610;23;20427;-77
2021/12/02 10:45:21;;;;;;;3.97;1.00;;;4.70;99.90;;;;;;5087020;23;20945;-76
2021/12/02 10:47:23;;;;;;;3.23;1.00;;;4.80;99.90;;;;;;5086971;23;20407;-76
2021/12/02 10:49:26;;;;;;;5.00;1.00;;;4.80;99.90;;;;;;5087528;23;20419;-78
2021/12/02 10:51:44;;;;;;;3.67;1.23;;;4.80;99.90;;;;;;5085867;23;20469;-79
2021/12/02 10:54:00;;;;;;;5.67;0.97;;;4.80;99.90;;;;;;5087347;23;20454;-78
2021/12/02 10:56:02;;;;;;;2.70;0.80;;;4.90;99.90;;;;;;5087003;23;20383;-77